sensor_id;sensor_type;location;lat;lon;timestamp;P1;durP1;ratioP1;P2;durP2;ratioP2
16994;SDS011;8614;48.522;9.206;2023-07-29T00:01:18;12.93;;;12.23;;
16994;SDS011;8614;48.522;9.206;2023-07-29T00:03:45;12.43;;;11.73;;
16994;SDS011;8614;48.522;9.206;2023-07-29T00:06:12;16.63;;;15.73;;
16994;SDS011;8614;48.522;9.206;2023-07-29T00:08:39;14.17;;;13.40;;
16994;SDS011;8614;48.522;9.206;2023-07-29T00:11:05;18.10;;;17.10;;
16994;SDS011;8614;48.522;9.206;2023-07-29T00:13:34;12.23;;;11.53;;
16994;SDS011;8614;48.522;9.206;2023-07-29T00:16:00;13.70;;;12.87;;
16994;SDS011;8614;48.522;9.206;2023-07-29T00:18:27;14.37;;;13.57;;
16994;SDS011;8614;48.522;9.206;2023-07-29T00:20:54;13.40;;;12.70;;
16994;SDS011;8614;48.522;9.206;2023-07-29T00:23:21;17.17;;;16.17;;
16994;SDS011;8614;48.522;9.206;2023-07-29T00:25:47;12.83;;;12.13;;
16994;SDS011;8614;48.522;9.206;2023-07-29T00:28:14;13.50;;;12.80;;
16994;SDS011;8614;48.522;9.206;2023-07-29T00:30:45;14.07;;;13.27;;
16994;SDS011;8614;48.522;9.206;2023-07-29T00:33:11;12.37;;;11.67;;
16994;SDS011;8614;48.522;9.206;2023-07-29T00:35:38;11.40;;;10.80;;
16994;SDS011;8614;48.522;9.206;2023-07-29T00:38:05;11.40;;;10.70;;
16994;SDS011;8614;48.522;9.206;2023-07-29T00:40:32;12.70;;;12.00;;
16994;SDS011;8614;48.522;9.206;2023-07-29T00:43:02;11.77;;;10.97;;
16994;SDS011;8614;48.522;9.206;2023-07-29T00:45:29;13.30;;;12.50;;
16994;SDS011;8614;48.522;9.206;2023-07-29T00:47:57;13.20;;;12.40;;
16994;SDS011;8614;48.522;9.206;2023-07-29T00:50:24;13.60;;;12.80;;
16994;SDS011;8614;48.522;9.206;2023-07-29T00:52:52;12.03;;;11.33;;
16994;SDS011;8614;48.522;9.206;2023-07-29T00:55:22;11.40;;;10.77;;
16994;SDS011;8614;48.522;9.206;2023-07-29T00:57:49;11.83;;;11.13;;
16994;SDS011;8614;48.522;9.206;2023-07-29T01:00:19;12.37;;;11.67;;
16994;SDS011;8614;48.522;9.206;2023-07-29T01:02:46;12.10;;;11.40;;
16994;SDS011;8614;48.522;9.206;2023-07-29T01:05:16;12.10;;;11.30;;
16994;SDS011;8614;48.522;9.206;2023-07-29T01:07:44;12.40;;;11.70;;
16994;SDS011;8614;48.522;9.206;2023-07-29T01:10:19;11.73;;;11.03;;
16994;SDS011;8614;48.522;9.206;2023-07-29T01:12:56;12.00;;;11.30;;
16994;SDS011;8614;48.522;9.206;2023-07-29T01:15:32;12.73;;;11.93;;
16994;SDS011;8614;48.522;9.206;2023-07-29T01:18:04;14.97;;;14.03;;
16994;SDS011;8614;48.522;9.206;2023-07-29T01:20:34;10.57;;;9.97;;
16994;SDS011;8614;48.522;9.206;2023-07-29T01:23:04;11.20;;;10.60;;
16994;SDS011;8614;48.522;9.206;2023-07-29T01:25:33;11.47;;;10.67;;
16994;SDS011;8614;48.522;9.206;2023-07-29T01:27:59;12.00;;;11.20;;
16994;SDS011;8614;48.522;9.206;2023-07-29T01:30:28;11.50;;;10.70;;
16994;SDS011;8614;48.522;9.206;2023-07-29T01:32:59;11.00;;;10.30;;
16994;SDS011;8614;48.522;9.206;2023-07-29T01:35:33;12.23;;;11.40;;
16994;SDS011;8614;48.522;9.206;2023-07-29T01:38:07;12.10;;;11.20;;
16994;SDS011;8614;48.522;9.206;2023-07-29T01:40:45;11.90;;;11.20;;
16994;SDS011;8614;48.522;9.206;2023-07-29T01:43:13;12.20;;;11.40;;
16994;SDS011;8614;48.522;9.206;2023-07-29T01:45:41;12.20;;;11.50;;
16994;SDS011;8614;48.522;9.206;2023-07-29T01:48:08;11.73;;;11.03;;
16994;SDS011;8614;48.522;9.206;2023-07-29T01:50:34;12.40;;;11.50;;
16994;SDS011;8614;48.522;9.206;2023-07-29T01:53:01;12.00;;;11.23;;
16994;SDS011;8614;48.522;9.206;2023-07-29T01:55:28;12.33;;;11.23;;
16994;SDS011;8614;48.522;9.206;2023-07-29T01:57:57;11.80;;;11.10;;
16994;SDS011;8614;48.522;9.206;2023-07-29T02:00:25;11.77;;;11.00;;
16994;SDS011;8614;48.522;9.206;2023-07-29T02:02:51;11.70;;;11.00;;
16994;SDS011;8614;48.522;9.206;2023-07-29T02:05:18;11.20;;;10.50;;
16994;SDS011;8614;48.522;9.206;2023-07-29T02:07:45;11.40;;;10.70;;
16994;SDS011;8614;48.522;9.206;2023-07-29T02:10:14;11.50;;;10.70;;
16994;SDS011;8614;48.522;9.206;2023-07-29T02:12:41;11.03;;;10.43;;
16994;SDS011;8614;48.522;9.206;2023-07-29T02:15:09;10.90;;;10.30;;
16994;SDS011;8614;48.522;9.206;2023-07-29T02:17:36;10.70;;;10.10;;
16994;SDS011;8614;48.522;9.206;2023-07-29T02:20:04;10.93;;;10.33;;
16994;SDS011;8614;48.522;9.206;2023-07-29T02:22:31;11.10;;;10.40;;
16994;SDS011;8614;48.522;9.206;2023-07-29T02:24:58;11.30;;;10.60;;
16994;SDS011;8614;48.522;9.206;2023-07-29T02:27:26;11.20;;;10.60;;
16994;SDS011;8614;48.522;9.206;2023-07-29T02:29:53;11.57;;;10.60;;
16994;SDS011;8614;48.522;9.206;2023-07-29T02:32:21;11.43;;;10.73;;
16994;SDS011;8614;48.522;9.206;2023-07-29T02:34:48;11.43;;;10.73;;
16994;SDS011;8614;48.522;9.206;2023-07-29T02:37:15;11.60;;;10.90;;
16994;SDS011;8614;48.522;9.206;2023-07-29T02:39:42;11.30;;;10.60;;
16994;SDS011;8614;48.522;9.206;2023-07-29T02:42:09;11.43;;;10.73;;
16994;SDS011;8614;48.522;9.206;2023-07-29T02:44:36;11.67;;;10.97;;
16994;SDS011;8614;48.522;9.206;2023-07-29T02:47:03;11.00;;;10.40;;
16994;SDS011;8614;48.522;9.206;2023-07-29T02:49:31;12.27;;;11.20;;
16994;SDS011;8614;48.522;9.206;2023-07-29T02:52:01;11.87;;;11.13;;
16994;SDS011;8614;48.522;9.206;2023-07-29T02:54:27;12.23;;;11.37;;
16994;SDS011;8614;48.522;9.206;2023-07-29T02:56:54;11.60;;;10.90;;
16994;SDS011;8614;48.522;9.206;2023-07-29T02:59:22;12.10;;;11.20;;
16994;SDS011;8614;48.522;9.206;2023-07-29T03:01:48;11.50;;;10.80;;
16994;SDS011;8614;48.522;9.206;2023-07-29T03:04:15;11.13;;;10.43;;
16994;SDS011;8614;48.522;9.206;2023-07-29T03:06:44;11.27;;;10.33;;
16994;SDS011;8614;48.522;9.206;2023-07-29T03:09:13;11.57;;;10.80;;
16994;SDS011;8614;48.522;9.206;2023-07-29T03:11:40;12.20;;;11.37;;
16994;SDS011;8614;48.522;9.206;2023-07-29T03:14:07;12.00;;;11.30;;
16994;SDS011;8614;48.522;9.206;2023-07-29T03:16:34;12.20;;;11.43;;
16994;SDS011;8614;48.522;9.206;2023-07-29T03:19:00;11.90;;;11.00;;
16994;SDS011;8614;48.522;9.206;2023-07-29T03:21:27;12.10;;;11.20;;
16994;SDS011;8614;48.522;9.206;2023-07-29T03:23:55;10.70;;;10.10;;
16994;SDS011;8614;48.522;9.206;2023-07-29T03:26:22;10.80;;;10.20;;
16994;SDS011;8614;48.522;9.206;2023-07-29T03:28:50;10.93;;;10.23;;
16994;SDS011;8614;48.522;9.206;2023-07-29T03:31:17;10.90;;;10.20;;
16994;SDS011;8614;48.522;9.206;2023-07-29T03:33:45;10.40;;;9.70;;
16994;SDS011;8614;48.522;9.206;2023-07-29T03:36:13;10.23;;;9.63;;
16994;SDS011;8614;48.522;9.206;2023-07-29T03:38:40;9.97;;;9.37;;
16994;SDS011;8614;48.522;9.206;2023-07-29T03:41:11;10.60;;;10.00;;
16994;SDS011;8614;48.522;9.206;2023-07-29T03:43:38;11.03;;;10.33;;
16994;SDS011;8614;48.522;9.206;2023-07-29T03:46:05;10.50;;;9.80;;
16994;SDS011;8614;48.522;9.206;2023-07-29T03:48:32;10.80;;;10.20;;
16994;SDS011;8614;48.522;9.206;2023-07-29T03:50:59;10.80;;;10.20;;
16994;SDS011;8614;48.522;9.206;2023-07-29T03:53:25;10.87;;;10.17;;
16994;SDS011;8614;48.522;9.206;2023-07-29T03:55:52;11.00;;;10.30;;
16994;SDS011;8614;48.522;9.206;2023-07-29T03:58:20;10.87;;;10.17;;
16994;SDS011;8614;48.522;9.206;2023-07-29T04:00:47;11.20;;;10.60;;
16994;SDS011;8614;48.522;9.206;2023-07-29T04:03:14;10.10;;;9.50;;
16994;SDS011;8614;48.522;9.206;2023-07-29T04:05:42;10.60;;;10.00;;
16994;SDS011;8614;48.522;9.206;2023-07-29T04:08:09;10.67;;;10.07;;
16994;SDS011;8614;48.522;9.206;2023-07-29T04:10:36;10.33;;;9.73;;
16994;SDS011;8614;48.522;9.206;2023-07-29T04:13:03;10.30;;;9.70;;
16994;SDS011;8614;48.522;9.206;2023-07-29T04:15:31;10.10;;;9.50;;
16994;SDS011;8614;48.522;9.206;2023-07-29T04:17:58;10.07;;;9.37;;
16994;SDS011;8614;48.522;9.206;2023-07-29T04:20:25;10.07;;;9.40;;
16994;SDS011;8614;48.522;9.206;2023-07-29T04:22:52;10.37;;;9.77;;
16994;SDS011;8614;48.522;9.206;2023-07-29T04:25:18;10.10;;;9.40;;
16994;SDS011;8614;48.522;9.206;2023-07-29T04:27:45;10.03;;;9.43;;
16994;SDS011;8614;48.522;9.206;2023-07-29T04:30:12;10.00;;;9.37;;
16994;SDS011;8614;48.522;9.206;2023-07-29T04:32:40;9.77;;;9.20;;
16994;SDS011;8614;48.522;9.206;2023-07-29T04:35:10;9.83;;;9.23;;
16994;SDS011;8614;48.522;9.206;2023-07-29T04:37:36;9.63;;;9.03;;
16994;SDS011;8614;48.522;9.206;2023-07-29T04:40:03;9.57;;;8.97;;
16994;SDS011;8614;48.522;9.206;2023-07-29T04:42:31;9.70;;;9.07;;
16994;SDS011;8614;48.522;9.206;2023-07-29T04:44:58;9.63;;;9.07;;
16994;SDS011;8614;48.522;9.206;2023-07-29T04:47:25;9.67;;;9.07;;
16994;SDS011;8614;48.522;9.206;2023-07-29T04:49:53;8.93;;;8.37;;
16994;SDS011;8614;48.522;9.206;2023-07-29T04:52:20;9.47;;;8.97;;
16994;SDS011;8614;48.522;9.206;2023-07-29T04:54:47;9.80;;;9.20;;
16994;SDS011;8614;48.522;9.206;2023-07-29T04:57:13;9.63;;;8.93;;
16994;SDS011;8614;48.522;9.206;2023-07-29T04:59:40;9.60;;;9.00;;
16994;SDS011;8614;48.522;9.206;2023-07-29T05:02:07;9.90;;;9.30;;
16994;SDS011;8614;48.522;9.206;2023-07-29T05:04:34;9.93;;;9.33;;
16994;SDS011;8614;48.522;9.206;2023-07-29T05:07:03;9.90;;;9.30;;
16994;SDS011;8614;48.522;9.206;2023-07-29T05:09:31;10.30;;;9.63;;
16994;SDS011;8614;48.522;9.206;2023-07-29T05:11:57;12.17;;;11.30;;
16994;SDS011;8614;48.522;9.206;2023-07-29T05:14:24;11.17;;;10.30;;
16994;SDS011;8614;48.522;9.206;2023-07-29T05:16:51;12.77;;;11.63;;
16994;SDS011;8614;48.522;9.206;2023-07-29T05:19:18;11.13;;;10.43;;
16994;SDS011;8614;48.522;9.206;2023-07-29T05:21:45;11.20;;;10.50;;
16994;SDS011;8614;48.522;9.206;2023-07-29T05:24:13;10.93;;;10.23;;
16994;SDS011;8614;48.522;9.206;2023-07-29T05:26:40;10.60;;;10.00;;
16994;SDS011;8614;48.522;9.206;2023-07-29T05:29:07;10.57;;;9.93;;
16994;SDS011;8614;48.522;9.206;2023-07-29T05:31:34;10.83;;;10.23;;
16994;SDS011;8614;48.522;9.206;2023-07-29T05:34:01;10.90;;;10.10;;
16994;SDS011;8614;48.522;9.206;2023-07-29T05:36:28;10.80;;;10.20;;
16994;SDS011;8614;48.522;9.206;2023-07-29T05:38:55;10.70;;;10.10;;
16994;SDS011;8614;48.522;9.206;2023-07-29T05:41:24;10.93;;;10.33;;
16994;SDS011;8614;48.522;9.206;2023-07-29T05:43:51;10.83;;;10.23;;
16994;SDS011;8614;48.522;9.206;2023-07-29T05:46:18;11.00;;;10.40;;
16994;SDS011;8614;48.522;9.206;2023-07-29T05:48:45;11.33;;;10.57;;
16994;SDS011;8614;48.522;9.206;2023-07-29T05:51:11;11.00;;;10.40;;
16994;SDS011;8614;48.522;9.206;2023-07-29T05:53:39;11.20;;;10.40;;
16994;SDS011;8614;48.522;9.206;2023-07-29T05:56:06;10.80;;;10.20;;
16994;SDS011;8614;48.522;9.206;2023-07-29T05:58:34;11.53;;;10.73;;
16994;SDS011;8614;48.522;9.206;2023-07-29T06:01:01;11.90;;;11.20;;
16994;SDS011;8614;48.522;9.206;2023-07-29T06:03:28;10.33;;;9.73;;
16994;SDS011;8614;48.522;9.206;2023-07-29T06:05:55;10.43;;;9.83;;
16994;SDS011;8614;48.522;9.206;2023-07-29T06:08:22;11.43;;;10.73;;
16994;SDS011;8614;48.522;9.206;2023-07-29T06:10:48;11.27;;;10.47;;
16994;SDS011;8614;48.522;9.206;2023-07-29T06:13:18;11.57;;;10.87;;
16994;SDS011;8614;48.522;9.206;2023-07-29T06:15:46;9.07;;;8.57;;
16994;SDS011;8614;48.522;9.206;2023-07-29T06:18:13;10.60;;;9.83;;
16994;SDS011;8614;48.522;9.206;2023-07-29T06:20:40;5.53;;;5.20;;
16994;SDS011;8614;48.522;9.206;2023-07-29T06:23:07;3.00;;;2.80;;
16994;SDS011;8614;48.522;9.206;2023-07-29T06:25:34;5.10;;;4.70;;
16994;SDS011;8614;48.522;9.206;2023-07-29T06:28:08;4.00;;;3.70;;
16994;SDS011;8614;48.522;9.206;2023-07-29T06:30:35;3.90;;;3.50;;
16994;SDS011;8614;48.522;9.206;2023-07-29T06:33:03;3.60;;;3.30;;
16994;SDS011;8614;48.522;9.206;2023-07-29T06:35:30;4.43;;;4.10;;
16994;SDS011;8614;48.522;9.206;2023-07-29T06:37:57;6.93;;;6.43;;
16994;SDS011;8614;48.522;9.206;2023-07-29T06:40:24;3.83;;;3.53;;
16994;SDS011;8614;48.522;9.206;2023-07-29T06:42:51;7.53;;;7.03;;
16994;SDS011;8614;48.522;9.206;2023-07-29T06:45:18;7.93;;;7.33;;
16994;SDS011;8614;48.522;9.206;2023-07-29T06:47:44;6.20;;;5.80;;
16994;SDS011;8614;48.522;9.206;2023-07-29T06:50:12;6.40;;;6.00;;
16994;SDS011;8614;48.522;9.206;2023-07-29T06:52:39;6.97;;;6.57;;
16994;SDS011;8614;48.522;9.206;2023-07-29T06:55:06;8.00;;;7.50;;
16994;SDS011;8614;48.522;9.206;2023-07-29T06:57:34;7.40;;;6.90;;
16994;SDS011;8614;48.522;9.206;2023-07-29T07:00:01;6.33;;;5.80;;
16994;SDS011;8614;48.522;9.206;2023-07-29T07:02:30;5.47;;;5.03;;
16994;SDS011;8614;48.522;9.206;2023-07-29T07:04:57;5.47;;;4.03;;
16994;SDS011;8614;48.522;9.206;2023-07-29T07:07:28;4.73;;;4.33;;
16994;SDS011;8614;48.522;9.206;2023-07-29T07:09:56;5.00;;;4.40;;
16994;SDS011;8614;48.522;9.206;2023-07-29T07:12:22;7.50;;;5.87;;
16994;SDS011;8614;48.522;9.206;2023-07-29T07:14:49;7.13;;;6.57;;
16994;SDS011;8614;48.522;9.206;2023-07-29T07:17:16;10.20;;;9.50;;
16994;SDS011;8614;48.522;9.206;2023-07-29T07:19:44;8.30;;;7.80;;
16994;SDS011;8614;48.522;9.206;2023-07-29T07:22:14;10.33;;;9.63;;
16994;SDS011;8614;48.522;9.206;2023-07-29T07:24:42;9.77;;;9.00;;
16994;SDS011;8614;48.522;9.206;2023-07-29T07:27:09;10.13;;;9.47;;
16994;SDS011;8614;48.522;9.206;2023-07-29T07:29:35;10.37;;;9.67;;
16994;SDS011;8614;48.522;9.206;2023-07-29T07:32:02;9.20;;;8.50;;
16994;SDS011;8614;48.522;9.206;2023-07-29T07:34:29;7.40;;;6.90;;
16994;SDS011;8614;48.522;9.206;2023-07-29T07:36:58;7.27;;;6.70;;
16994;SDS011;8614;48.522;9.206;2023-07-29T07:39:25;7.60;;;7.10;;
16994;SDS011;8614;48.522;9.206;2023-07-29T07:41:53;3.70;;;3.40;;
16994;SDS011;8614;48.522;9.206;2023-07-29T07:44:20;4.20;;;3.80;;
16994;SDS011;8614;48.522;9.206;2023-07-29T07:46:47;4.80;;;4.40;;
16994;SDS011;8614;48.522;9.206;2023-07-29T07:49:14;9.83;;;9.20;;
16994;SDS011;8614;48.522;9.206;2023-07-29T07:51:40;9.80;;;9.20;;
16994;SDS011;8614;48.522;9.206;2023-07-29T07:54:09;8.70;;;8.10;;
16994;SDS011;8614;48.522;9.206;2023-07-29T07:56:36;8.73;;;8.20;;
16994;SDS011;8614;48.522;9.206;2023-07-29T07:59:04;9.90;;;9.30;;
16994;SDS011;8614;48.522;9.206;2023-07-29T08:01:33;9.40;;;8.80;;
16994;SDS011;8614;48.522;9.206;2023-07-29T08:04:01;9.23;;;8.63;;
16994;SDS011;8614;48.522;9.206;2023-07-29T08:06:28;5.23;;;4.83;;
16994;SDS011;8614;48.522;9.206;2023-07-29T08:08:55;4.53;;;4.03;;
16994;SDS011;8614;48.522;9.206;2023-07-29T08:11:22;4.63;;;4.17;;
16994;SDS011;8614;48.522;9.206;2023-07-29T08:13:49;4.40;;;4.00;;
16994;SDS011;8614;48.522;9.206;2023-07-29T08:16:17;3.70;;;3.40;;
16994;SDS011;8614;48.522;9.206;2023-07-29T08:18:44;6.80;;;6.40;;
16994;SDS011;8614;48.522;9.206;2023-07-29T08:21:10;9.20;;;8.60;;
16994;SDS011;8614;48.522;9.206;2023-07-29T08:23:37;3.80;;;3.50;;
16994;SDS011;8614;48.522;9.206;2023-07-29T08:26:04;6.20;;;5.80;;
16994;SDS011;8614;48.522;9.206;2023-07-29T08:28:33;3.73;;;3.50;;
16994;SDS011;8614;48.522;9.206;2023-07-29T08:31:00;3.70;;;3.40;;
16994;SDS011;8614;48.522;9.206;2023-07-29T08:33:29;3.70;;;3.40;;
16994;SDS011;8614;48.522;9.206;2023-07-29T08:35:56;3.87;;;3.57;;
16994;SDS011;8614;48.522;9.206;2023-07-29T08:38:23;4.30;;;4.00;;
16994;SDS011;8614;48.522;9.206;2023-07-29T08:40:52;4.10;;;3.80;;
16994;SDS011;8614;48.522;9.206;2023-07-29T08:43:23;3.50;;;3.30;;
16994;SDS011;8614;48.522;9.206;2023-07-29T08:45:55;4.10;;;3.70;;
16994;SDS011;8614;48.522;9.206;2023-07-29T08:48:23;3.93;;;3.73;;
16994;SDS011;8614;48.522;9.206;2023-07-29T08:50:55;5.00;;;4.60;;
16994;SDS011;8614;48.522;9.206;2023-07-29T08:53:23;7.90;;;7.37;;
16994;SDS011;8614;48.522;9.206;2023-07-29T08:55:50;7.17;;;6.67;;
16994;SDS011;8614;48.522;9.206;2023-07-29T08:58:18;3.60;;;3.40;;
16994;SDS011;8614;48.522;9.206;2023-07-29T09:00:46;3.70;;;3.40;;
16994;SDS011;8614;48.522;9.206;2023-07-29T09:03:13;3.40;;;3.20;;
16994;SDS011;8614;48.522;9.206;2023-07-29T09:05:42;4.30;;;4.00;;
16994;SDS011;8614;48.522;9.206;2023-07-29T09:08:09;8.67;;;8.07;;
16994;SDS011;8614;48.522;9.206;2023-07-29T09:10:36;3.80;;;3.50;;
16994;SDS011;8614;48.522;9.206;2023-07-29T09:13:04;9.70;;;8.97;;
16994;SDS011;8614;48.522;9.206;2023-07-29T09:15:32;9.33;;;8.73;;
16994;SDS011;8614;48.522;9.206;2023-07-29T09:18:08;6.23;;;5.73;;
16994;SDS011;8614;48.522;9.206;2023-07-29T09:20:35;6.17;;;5.70;;
16994;SDS011;8614;48.522;9.206;2023-07-29T09:23:06;5.80;;;5.40;;
16994;SDS011;8614;48.522;9.206;2023-07-29T09:25:34;8.17;;;7.47;;
16994;SDS011;8614;48.522;9.206;2023-07-29T09:28:01;7.30;;;6.80;;
16994;SDS011;8614;48.522;9.206;2023-07-29T09:30:33;7.53;;;6.93;;
16994;SDS011;8614;48.522;9.206;2023-07-29T09:33:00;10.13;;;9.43;;
16994;SDS011;8614;48.522;9.206;2023-07-29T09:35:27;7.87;;;7.20;;
16994;SDS011;8614;48.522;9.206;2023-07-29T09:37:56;11.10;;;10.30;;
16994;SDS011;8614;48.522;9.206;2023-07-29T09:40:24;9.17;;;8.47;;
16994;SDS011;8614;48.522;9.206;2023-07-29T09:42:52;9.63;;;9.00;;
16994;SDS011;8614;48.522;9.206;2023-07-29T09:45:21;4.30;;;3.90;;
16994;SDS011;8614;48.522;9.206;2023-07-29T09:47:49;8.87;;;8.13;;
16994;SDS011;8614;48.522;9.206;2023-07-29T09:50:16;9.23;;;8.50;;
16994;SDS011;8614;48.522;9.206;2023-07-29T09:52:44;8.67;;;7.97;;
16994;SDS011;8614;48.522;9.206;2023-07-29T09:55:11;3.97;;;3.67;;
16994;SDS011;8614;48.522;9.206;2023-07-29T09:57:46;8.43;;;6.40;;
16994;SDS011;8614;48.522;9.206;2023-07-29T10:00:13;9.57;;;8.97;;
16994;SDS011;8614;48.522;9.206;2023-07-29T10:02:40;11.50;;;10.60;;
16994;SDS011;8614;48.522;9.206;2023-07-29T10:05:09;10.20;;;9.50;;
16994;SDS011;8614;48.522;9.206;2023-07-29T10:07:36;9.90;;;9.30;;
16994;SDS011;8614;48.522;9.206;2023-07-29T10:10:05;11.03;;;10.13;;
16994;SDS011;8614;48.522;9.206;2023-07-29T10:12:34;10.80;;;9.90;;
16994;SDS011;8614;48.522;9.206;2023-07-29T10:15:03;9.50;;;8.90;;
16994;SDS011;8614;48.522;9.206;2023-07-29T10:17:31;9.70;;;9.10;;
16994;SDS011;8614;48.522;9.206;2023-07-29T10:20:01;8.80;;;8.30;;
16994;SDS011;8614;48.522;9.206;2023-07-29T10:22:36;8.00;;;7.50;;
16994;SDS011;8614;48.522;9.206;2023-07-29T10:25:04;8.00;;;7.40;;
16994;SDS011;8614;48.522;9.206;2023-07-29T10:27:35;7.43;;;6.93;;
16994;SDS011;8614;48.522;9.206;2023-07-29T10:30:10;8.37;;;7.67;;
16994;SDS011;8614;48.522;9.206;2023-07-29T10:32:38;6.97;;;6.57;;
16994;SDS011;8614;48.522;9.206;2023-07-29T10:35:07;7.97;;;7.40;;
16994;SDS011;8614;48.522;9.206;2023-07-29T10:37:34;7.50;;;7.00;;
16994;SDS011;8614;48.522;9.206;2023-07-29T10:40:05;8.57;;;7.97;;
16994;SDS011;8614;48.522;9.206;2023-07-29T10:42:33;8.80;;;8.20;;
16994;SDS011;8614;48.522;9.206;2023-07-29T10:45:00;7.80;;;7.30;;
16994;SDS011;8614;48.522;9.206;2023-07-29T10:47:44;9.10;;;8.50;;
16994;SDS011;8614;48.522;9.206;2023-07-29T10:50:16;9.37;;;8.77;;
16994;SDS011;8614;48.522;9.206;2023-07-29T10:52:46;8.13;;;7.63;;
16994;SDS011;8614;48.522;9.206;2023-07-29T10:55:23;7.60;;;7.00;;
16994;SDS011;8614;48.522;9.206;2023-07-29T10:57:52;7.00;;;6.60;;
16994;SDS011;8614;48.522;9.206;2023-07-29T11:00:30;8.47;;;7.80;;
16994;SDS011;8614;48.522;9.206;2023-07-29T11:03:00;7.97;;;7.40;;
16994;SDS011;8614;48.522;9.206;2023-07-29T11:05:41;7.60;;;7.10;;
16994;SDS011;8614;48.522;9.206;2023-07-29T11:08:16;6.30;;;5.80;;
16994;SDS011;8614;48.522;9.206;2023-07-29T11:10:44;3.80;;;3.50;;
16994;SDS011;8614;48.522;9.206;2023-07-29T11:13:30;7.37;;;6.87;;
16994;SDS011;8614;48.522;9.206;2023-07-29T11:15:58;7.80;;;7.30;;
16994;SDS011;8614;48.522;9.206;2023-07-29T11:18:28;8.03;;;7.53;;
16994;SDS011;8614;48.522;9.206;2023-07-29T11:20:57;8.37;;;7.77;;
16994;SDS011;8614;48.522;9.206;2023-07-29T11:23:31;8.77;;;7.97;;
16994;SDS011;8614;48.522;9.206;2023-07-29T11:29:46;7.90;;;7.20;;
16994;SDS011;8614;48.522;9.206;2023-07-29T11:32:13;7.90;;;7.40;;
16994;SDS011;8614;48.522;9.206;2023-07-29T11:34:41;7.70;;;7.20;;
16994;SDS011;8614;48.522;9.206;2023-07-29T11:37:10;7.83;;;7.33;;
16994;SDS011;8614;48.522;9.206;2023-07-29T11:39:39;7.77;;;7.27;;
16994;SDS011;8614;48.522;9.206;2023-07-29T11:42:06;8.63;;;8.00;;
16994;SDS011;8614;48.522;9.206;2023-07-29T11:44:33;6.53;;;6.13;;
16994;SDS011;8614;48.522;9.206;2023-07-29T11:47:00;5.70;;;5.20;;
16994;SDS011;8614;48.522;9.206;2023-07-29T11:49:26;4.33;;;3.90;;
16994;SDS011;8614;48.522;9.206;2023-07-29T11:51:55;5.60;;;5.23;;
16994;SDS011;8614;48.522;9.206;2023-07-29T11:54:22;8.63;;;8.10;;
16994;SDS011;8614;48.522;9.206;2023-07-29T11:56:49;8.00;;;7.50;;
16994;SDS011;8614;48.522;9.206;2023-07-29T11:59:16;7.63;;;7.13;;
16994;SDS011;8614;48.522;9.206;2023-07-29T12:01:43;3.10;;;2.90;;
16994;SDS011;8614;48.522;9.206;2023-07-29T12:04:11;3.10;;;2.90;;
16994;SDS011;8614;48.522;9.206;2023-07-29T12:06:39;3.00;;;2.80;;
16994;SDS011;8614;48.522;9.206;2023-07-29T12:09:07;3.10;;;2.87;;
16994;SDS011;8614;48.522;9.206;2023-07-29T12:11:34;3.20;;;2.90;;
16994;SDS011;8614;48.522;9.206;2023-07-29T12:14:01;3.67;;;3.20;;
16994;SDS011;8614;48.522;9.206;2023-07-29T12:16:28;3.40;;;3.10;;
16994;SDS011;8614;48.522;9.206;2023-07-29T12:19:00;2.97;;;2.73;;
16994;SDS011;8614;48.522;9.206;2023-07-29T12:21:26;4.27;;;2.80;;
16994;SDS011;8614;48.522;9.206;2023-07-29T12:23:55;2.97;;;2.77;;
16994;SDS011;8614;48.522;9.206;2023-07-29T12:26:28;4.17;;;3.00;;
16994;SDS011;8614;48.522;9.206;2023-07-29T12:28:55;4.40;;;4.10;;
16994;SDS011;8614;48.522;9.206;2023-07-29T12:31:28;4.63;;;4.33;;
16994;SDS011;8614;48.522;9.206;2023-07-29T12:33:58;4.83;;;4.37;;
16994;SDS011;8614;48.522;9.206;2023-07-29T12:36:27;4.73;;;4.33;;
16994;SDS011;8614;48.522;9.206;2023-07-29T12:39:06;4.57;;;4.27;;
16994;SDS011;8614;48.522;9.206;2023-07-29T12:41:42;4.73;;;4.27;;
16994;SDS011;8614;48.522;9.206;2023-07-29T12:44:09;5.00;;;4.70;;
16994;SDS011;8614;48.522;9.206;2023-07-29T12:46:36;4.70;;;4.30;;
16994;SDS011;8614;48.522;9.206;2023-07-29T12:49:03;5.03;;;4.63;;
16994;SDS011;8614;48.522;9.206;2023-07-29T12:51:30;5.40;;;5.00;;
16994;SDS011;8614;48.522;9.206;2023-07-29T12:53:56;4.70;;;4.40;;
16994;SDS011;8614;48.522;9.206;2023-07-29T12:56:23;5.80;;;4.57;;
16994;SDS011;8614;48.522;9.206;2023-07-29T12:58:51;5.03;;;4.50;;
16994;SDS011;8614;48.522;9.206;2023-07-29T13:01:18;4.07;;;3.77;;
16994;SDS011;8614;48.522;9.206;2023-07-29T13:03:45;3.33;;;3.13;;
16994;SDS011;8614;48.522;9.206;2023-07-29T13:06:12;3.40;;;3.10;;
16994;SDS011;8614;48.522;9.206;2023-07-29T13:08:38;3.80;;;3.50;;
16994;SDS011;8614;48.522;9.206;2023-07-29T13:11:05;5.00;;;4.60;;
16994;SDS011;8614;48.522;9.206;2023-07-29T13:13:32;5.40;;;5.00;;
16994;SDS011;8614;48.522;9.206;2023-07-29T13:16:00;6.10;;;5.70;;
16994;SDS011;8614;48.522;9.206;2023-07-29T13:18:28;6.00;;;5.60;;
16994;SDS011;8614;48.522;9.206;2023-07-29T13:20:55;6.90;;;6.30;;
16994;SDS011;8614;48.522;9.206;2023-07-29T13:23:22;7.47;;;6.97;;
16994;SDS011;8614;48.522;9.206;2023-07-29T13:25:49;6.67;;;6.27;;
16994;SDS011;8614;48.522;9.206;2023-07-29T13:28:16;7.70;;;7.20;;
16994;SDS011;8614;48.522;9.206;2023-07-29T13:30:44;6.77;;;6.27;;
16994;SDS011;8614;48.522;9.206;2023-07-29T13:33:12;7.57;;;7.07;;
16994;SDS011;8614;48.522;9.206;2023-07-29T13:35:38;6.80;;;6.40;;
16994;SDS011;8614;48.522;9.206;2023-07-29T13:38:05;6.77;;;6.27;;
16994;SDS011;8614;48.522;9.206;2023-07-29T13:40:32;7.40;;;6.80;;
16994;SDS011;8614;48.522;9.206;2023-07-29T13:42:59;7.60;;;7.00;;
16994;SDS011;8614;48.522;9.206;2023-07-29T13:45:26;8.10;;;7.50;;
16994;SDS011;8614;48.522;9.206;2023-07-29T13:47:53;4.53;;;4.13;;
16994;SDS011;8614;48.522;9.206;2023-07-29T13:50:21;3.53;;;3.23;;
16994;SDS011;8614;48.522;9.206;2023-07-29T13:52:47;5.33;;;4.93;;
16994;SDS011;8614;48.522;9.206;2023-07-29T13:55:14;3.50;;;3.20;;
16994;SDS011;8614;48.522;9.206;2023-07-29T13:57:41;3.20;;;3.00;;
16994;SDS011;8614;48.522;9.206;2023-07-29T14:00:08;3.30;;;3.10;;
16994;SDS011;8614;48.522;9.206;2023-07-29T14:02:38;3.40;;;2.87;;
16994;SDS011;8614;48.522;9.206;2023-07-29T14:05:05;4.37;;;4.07;;
16994;SDS011;8614;48.522;9.206;2023-07-29T14:07:33;6.13;;;5.73;;
16994;SDS011;8614;48.522;9.206;2023-07-29T14:10:00;6.97;;;6.47;;
16994;SDS011;8614;48.522;9.206;2023-07-29T14:12:27;7.27;;;6.70;;
16994;SDS011;8614;48.522;9.206;2023-07-29T14:14:54;7.67;;;7.17;;
16994;SDS011;8614;48.522;9.206;2023-07-29T14:17:20;8.27;;;7.70;;
16994;SDS011;8614;48.522;9.206;2023-07-29T14:19:47;6.53;;;6.10;;
16994;SDS011;8614;48.522;9.206;2023-07-29T14:22:14;7.20;;;6.70;;
16994;SDS011;8614;48.522;9.206;2023-07-29T14:24:42;8.20;;;7.70;;
16994;SDS011;8614;48.522;9.206;2023-07-29T14:27:09;8.03;;;7.43;;
16994;SDS011;8614;48.522;9.206;2023-07-29T14:29:36;3.10;;;2.90;;
16994;SDS011;8614;48.522;9.206;2023-07-29T14:32:03;5.93;;;5.53;;
16994;SDS011;8614;48.522;9.206;2023-07-29T14:34:30;5.73;;;5.33;;
16994;SDS011;8614;48.522;9.206;2023-07-29T14:36:57;6.20;;;5.80;;
16994;SDS011;8614;48.522;9.206;2023-07-29T14:39:23;6.00;;;5.50;;
16994;SDS011;8614;48.522;9.206;2023-07-29T14:41:52;6.90;;;6.40;;
16994;SDS011;8614;48.522;9.206;2023-07-29T14:44:19;6.77;;;6.33;;
16994;SDS011;8614;48.522;9.206;2023-07-29T14:46:45;7.33;;;6.77;;
16994;SDS011;8614;48.522;9.206;2023-07-29T14:49:12;3.50;;;3.20;;
16994;SDS011;8614;48.522;9.206;2023-07-29T14:51:39;6.77;;;6.27;;
16994;SDS011;8614;48.522;9.206;2023-07-29T14:54:06;5.10;;;4.70;;
16994;SDS011;8614;48.522;9.206;2023-07-29T14:56:32;3.57;;;3.37;;
16994;SDS011;8614;48.522;9.206;2023-07-29T14:59:00;3.50;;;3.20;;